sensor_id;sensor_type;location;lat;lon;timestamp;pressure;altitude;pressure_sealevel;temperature;humidity
72359;BME280;60317;48.880;-0.862;2023-07-13T00:00:42;100606.06;;;21.43;53.81
72359;BME280;60317;48.880;-0.862;2023-07-13T00:03:09;100608.75;;;21.43;53.65
72359;BME280;60317;48.880;-0.862;2023-07-13T00:05:35;100618.78;;;21.41;53.80
72359;BME280;60317;48.880;-0.862;2023-07-13T00:08:03;100619.66;;;21.41;53.83
72359;BME280;60317;48.880;-0.862;2023-07-13T00:10:30;100616.97;;;21.41;53.61
72359;BME280;60317;48.880;-0.862;2023-07-13T00:12:57;100611.59;;;21.41;53.75
72359;BME280;60317;48.880;-0.862;2023-07-13T00:15:25;100611.59;;;21.41;54.00
72359;BME280;60317;48.880;-0.862;2023-07-13T00:17:54;100604.47;;;21.40;53.84
72359;BME280;60317;48.880;-0.862;2023-07-13T00:20:22;100595.44;;;21.41;53.91
72359;BME280;60317;48.880;-0.862;2023-07-13T00:22:49;100599.09;;;21.40;53.96
72359;BME280;60317;48.880;-0.862;2023-07-13T00:25:17;100597.25;;;21.41;54.07
72359;BME280;60317;48.880;-0.862;2023-07-13T00:27:44;100604.47;;;21.40;54.22
72359;BME280;60317;48.880;-0.862;2023-07-13T00:30:11;100600.81;;;21.41;54.14
72359;BME280;60317;48.880;-0.862;2023-07-13T00:32:38;100604.47;;;21.40;54.15
72359;BME280;60317;48.880;-0.862;2023-07-13T00:35:04;100604.47;;;21.40;54.15
72359;BME280;60317;48.880;-0.862;2023-07-13T00:37:31;100611.59;;;21.41;54.18
72359;BME280;60317;48.880;-0.862;2023-07-13T00:39:58;100608.91;;;21.41;54.15
72359;BME280;60317;48.880;-0.862;2023-07-13T00:42:26;100601.94;;;21.39;54.15
72359;BME280;60317;48.880;-0.862;2023-07-13T00:45:01;100598.25;;;21.40;54.25
72359;BME280;60317;48.880;-0.862;2023-07-13T00:47:28;100606.31;;;21.40;54.37
72359;BME280;60317;48.880;-0.862;2023-07-13T00:49:56;100608.16;;;21.39;54.46
72359;BME280;60317;48.880;-0.862;2023-07-13T00:52:23;100610.84;;;21.39;54.59
72359;BME280;60317;48.880;-0.862;2023-07-13T00:54:50;100611.84;;;21.38;54.58
72359;BME280;60317;48.880;-0.862;2023-07-13T00:57:18;100595.84;;;21.37;54.70
72359;BME280;60317;48.880;-0.862;2023-07-13T00:59:50;100605.63;;;21.38;54.64
72359;BME280;60317;48.880;-0.862;2023-07-13T01:02:18;100599.38;;;21.37;54.71
72359;BME280;60317;48.880;-0.862;2023-07-13T01:04:46;100609.28;;;21.37;54.90
72359;BME280;60317;48.880;-0.862;2023-07-13T01:07:12;100608.44;;;21.36;54.84
72359;BME280;60317;48.880;-0.862;2023-07-13T01:09:39;100606.75;;;21.35;55.17
72359;BME280;60317;48.880;-0.862;2023-07-13T01:12:07;100606.75;;;21.35;54.86
72359;BME280;60317;48.880;-0.862;2023-07-13T01:14:34;100606.75;;;21.35;54.96
72359;BME280;60317;48.880;-0.862;2023-07-13T01:17:02;100611.28;;;21.35;55.25
72359;BME280;60317;48.880;-0.862;2023-07-13T01:19:33;100607.75;;;21.34;55.21
72359;BME280;60317;48.880;-0.862;2023-07-13T01:22:02;100605.06;;;21.34;55.19
72359;BME280;60317;48.880;-0.862;2023-07-13T01:24:28;100609.44;;;21.35;55.14
72359;BME280;60317;48.880;-0.862;2023-07-13T01:26:55;100608.59;;;21.35;55.00
72359;BME280;60317;48.880;-0.862;2023-07-13T01:29:21;100604.16;;;21.34;55.38
72359;BME280;60317;48.880;-0.862;2023-07-13T01:31:48;100609.66;;;21.32;55.04
72359;BME280;60317;48.880;-0.862;2023-07-13T01:34:14;100604.28;;;21.32;55.44
72359;BME280;60317;48.880;-0.862;2023-07-13T01:36:41;100606.97;;;21.32;55.31
72359;BME280;60317;48.880;-0.862;2023-07-13T01:39:09;100606.97;;;21.32;55.35
72359;BME280;60317;48.880;-0.862;2023-07-13T01:41:35;100606.13;;;21.32;55.49
72359;BME280;60317;48.880;-0.862;2023-07-13T01:44:02;100602.59;;;21.31;55.35
72359;BME280;60317;48.880;-0.862;2023-07-13T01:46:28;100610.66;;;21.31;55.39
72359;BME280;60317;48.880;-0.862;2023-07-13T01:48:55;100614.19;;;21.32;55.43
72359;BME280;60317;48.880;-0.862;2023-07-13T01:51:22;100610.66;;;21.31;55.39
72359;BME280;60317;48.880;-0.862;2023-07-13T01:53:48;100617.00;;;21.30;55.46
72359;BME280;60317;48.880;-0.862;2023-07-13T01:56:16;100611.50;;;21.32;55.47
72359;BME280;60317;48.880;-0.862;2023-07-13T01:58:43;100620.56;;;21.31;55.54
72359;BME280;60317;48.880;-0.862;2023-07-13T02:01:10;100618.84;;;21.30;55.49
72359;BME280;60317;48.880;-0.862;2023-07-13T02:03:37;100615.19;;;21.31;55.49
72359;BME280;60317;48.880;-0.862;2023-07-13T02:06:03;100618.00;;;21.29;55.51
72359;BME280;60317;48.880;-0.862;2023-07-13T02:08:31;100608.94;;;21.30;55.51
72359;BME280;60317;48.880;-0.862;2023-07-13T02:10:58;100611.63;;;21.30;55.49
72359;BME280;60317;48.880;-0.862;2023-07-13T02:13:26;100604.56;;;21.29;55.57
72359;BME280;60317;48.880;-0.862;2023-07-13T02:15:53;100610.94;;;21.28;55.53
72359;BME280;60317;48.880;-0.862;2023-07-13T02:18:20;100604.69;;;21.28;55.64
72359;BME280;60317;48.880;-0.862;2023-07-13T02:20:46;100599.44;;;21.26;55.64
72359;BME280;60317;48.880;-0.862;2023-07-13T02:23:13;100596.75;;;21.26;55.51
72359;BME280;60317;48.880;-0.862;2023-07-13T02:25:39;100605.66;;;21.27;55.60
72359;BME280;60317;48.880;-0.862;2023-07-13T02:28:06;100602.13;;;21.26;55.71
72359;BME280;60317;48.880;-0.862;2023-07-13T02:30:35;100602.13;;;21.26;55.94
72359;BME280;60317;48.880;-0.862;2023-07-13T02:33:02;100589.69;;;21.25;55.50
72359;BME280;60317;48.880;-0.862;2023-07-13T02:35:29;100590.53;;;21.26;55.62
72359;BME280;60317;48.880;-0.862;2023-07-13T02:37:55;100593.22;;;21.26;55.69
72359;BME280;60317;48.880;-0.862;2023-07-13T02:40:22;100595.06;;;21.25;55.53
72359;BME280;60317;48.880;-0.862;2023-07-13T02:42:48;100590.69;;;21.24;55.61
72359;BME280;60317;48.880;-0.862;2023-07-13T02:45:15;100596.91;;;21.25;55.60
72359;BME280;60317;48.880;-0.862;2023-07-13T02:47:43;100608.66;;;21.24;55.83
72359;BME280;60317;48.880;-0.862;2023-07-13T02:50:09;100606.81;;;21.24;55.63
72359;BME280;60317;48.880;-0.862;2023-07-13T02:52:36;100600.72;;;21.22;55.76
72359;BME280;60317;48.880;-0.862;2023-07-13T02:55:03;100606.09;;;21.22;55.70
72359;BME280;60317;48.880;-0.862;2023-07-13T02:57:29;100598.03;;;21.22;55.81
72359;BME280;60317;48.880;-0.862;2023-07-13T02:59:56;100606.09;;;21.22;55.75
72359;BME280;60317;48.880;-0.862;2023-07-13T03:02:22;100600.72;;;21.22;55.91
72359;BME280;60317;48.880;-0.862;2023-07-13T03:04:50;100605.25;;;21.21;55.87
72359;BME280;60317;48.880;-0.862;2023-07-13T03:07:17;100605.25;;;21.21;55.79
72359;BME280;60317;48.880;-0.862;2023-07-13T03:09:43;100605.38;;;21.20;55.92
72359;BME280;60317;48.880;-0.862;2023-07-13T03:12:10;100602.69;;;21.20;55.83
72359;BME280;60317;48.880;-0.862;2023-07-13T03:14:36;100606.34;;;21.19;55.90
72359;BME280;60317;48.880;-0.862;2023-07-13T03:17:03;100600.97;;;21.19;55.85
72359;BME280;60317;48.880;-0.862;2023-07-13T03:19:30;100602.97;;;21.17;55.94
72359;BME280;60317;48.880;-0.862;2023-07-13T03:21:58;100601.97;;;21.18;56.06
72359;BME280;60317;48.880;-0.862;2023-07-13T03:24:24;100603.81;;;21.17;55.97
72359;BME280;60317;48.880;-0.862;2023-07-13T03:26:51;100609.31;;;21.16;55.96
72359;BME280;60317;48.880;-0.862;2023-07-13T03:29:17;100608.47;;;21.15;56.06
72359;BME280;60317;48.880;-0.862;2023-07-13T03:31:44;100615.53;;;21.16;56.09
72359;BME280;60317;48.880;-0.862;2023-07-13T03:34:10;100614.69;;;21.16;56.09
72359;BME280;60317;48.880;-0.862;2023-07-13T03:36:37;100601.38;;;21.14;56.09
72359;BME280;60317;48.880;-0.862;2023-07-13T03:39:05;100605.06;;;21.13;56.14
72359;BME280;60317;48.880;-0.862;2023-07-13T03:41:31;100608.59;;;21.14;56.13
72359;BME280;60317;48.880;-0.862;2023-07-13T03:43:58;100601.50;;;21.13;56.16
72359;BME280;60317;48.880;-0.862;2023-07-13T03:46:25;100615.81;;;21.13;56.15
72359;BME280;60317;48.880;-0.862;2023-07-13T03:48:51;100612.25;;;21.13;56.00
72359;BME280;60317;48.880;-0.862;2023-07-13T03:51:18;100616.78;;;21.12;56.46
72359;BME280;60317;48.880;-0.862;2023-07-13T03:53:46;100613.25;;;21.12;56.43
72359;BME280;60317;48.880;-0.862;2023-07-13T03:56:15;100604.34;;;21.11;56.18
72359;BME280;60317;48.880;-0.862;2023-07-13T03:58:44;100615.09;;;21.11;56.46
72359;BME280;60317;48.880;-0.862;2023-07-13T04:01:12;100607.19;;;21.10;56.18
72359;BME280;60317;48.880;-0.862;2023-07-13T04:03:39;100613.41;;;21.10;56.44
72359;BME280;60317;48.880;-0.862;2023-07-13T04:06:08;100619.63;;;21.11;56.36
72359;BME280;60317;48.880;-0.862;2023-07-13T04:08:37;100619.63;;;21.11;56.48
72359;BME280;60317;48.880;-0.862;2023-07-13T04:11:04;100629.63;;;21.09;56.26
72359;BME280;60317;48.880;-0.862;2023-07-13T04:13:32;100627.78;;;21.09;56.33
72359;BME280;60317;48.880;-0.862;2023-07-13T04:15:59;100620.63;;;21.10;56.32
72359;BME280;60317;48.880;-0.862;2023-07-13T04:18:25;100632.31;;;21.09;56.41
72359;BME280;60317;48.880;-0.862;2023-07-13T04:20:52;100625.25;;;21.08;56.48
72359;BME280;60317;48.880;-0.862;2023-07-13T04:23:18;100638.53;;;21.09;56.45
72359;BME280;60317;48.880;-0.862;2023-07-13T04:25:46;100639.53;;;21.08;56.39
72359;BME280;60317;48.880;-0.862;2023-07-13T04:28:12;100642.22;;;21.08;56.46
72359;BME280;60317;48.880;-0.862;2023-07-13T04:30:40;100641.38;;;21.08;56.33
72359;BME280;60317;48.880;-0.862;2023-07-13T04:33:07;100645.91;;;21.07;56.40
72359;BME280;60317;48.880;-0.862;2023-07-13T04:35:33;100649.59;;;21.06;56.56
72359;BME280;60317;48.880;-0.862;2023-07-13T04:38:00;100647.75;;;21.07;56.59
72359;BME280;60317;48.880;-0.862;2023-07-13T04:40:27;100653.13;;;21.07;56.53
72359;BME280;60317;48.880;-0.862;2023-07-13T04:42:54;100648.72;;;21.06;56.61
72359;BME280;60317;48.880;-0.862;2023-07-13T04:45:21;100649.59;;;21.06;56.82
72359;BME280;60317;48.880;-0.862;2023-07-13T04:47:49;100648.72;;;21.06;56.64
72359;BME280;60317;48.880;-0.862;2023-07-13T04:50:16;100655.81;;;21.07;56.74
72359;BME280;60317;48.880;-0.862;2023-07-13T04:52:42;100663.88;;;21.07;56.94
72359;BME280;60317;48.880;-0.862;2023-07-13T04:55:09;100664.72;;;21.07;56.79
72359;BME280;60317;48.880;-0.862;2023-07-13T04:57:35;100664.84;;;21.06;56.95
72359;BME280;60317;48.880;-0.862;2023-07-13T05:00:03;100672.06;;;21.05;57.07
72359;BME280;60317;48.880;-0.862;2023-07-13T05:02:30;100663.13;;;21.05;56.80
72359;BME280;60317;48.880;-0.862;2023-07-13T05:04:57;100665.81;;;21.05;57.05
72359;BME280;60317;48.880;-0.862;2023-07-13T05:07:24;100661.31;;;21.05;57.05
72359;BME280;60317;48.880;-0.862;2023-07-13T05:09:52;100669.38;;;21.05;56.90
72359;BME280;60317;48.880;-0.862;2023-07-13T05:12:18;100670.34;;;21.04;57.07
72359;BME280;60317;48.880;-0.862;2023-07-13T05:14:45;100672.06;;;21.05;56.95
72359;BME280;60317;48.880;-0.862;2023-07-13T05:17:11;100664.84;;;21.06;57.06
72359;BME280;60317;48.880;-0.862;2023-07-13T05:19:38;100662.16;;;21.06;57.02
72359;BME280;60317;48.880;-0.862;2023-07-13T05:22:05;100657.75;;;21.05;56.76
72359;BME280;60317;48.880;-0.862;2023-07-13T05:24:32;100657.66;;;21.06;57.07
72359;BME280;60317;48.880;-0.862;2023-07-13T05:26:58;100653.13;;;21.07;57.08
72359;BME280;60317;48.880;-0.862;2023-07-13T05:29:25;100661.19;;;21.07;57.12
72359;BME280;60317;48.880;-0.862;2023-07-13T05:31:52;100655.81;;;21.07;56.88
72359;BME280;60317;48.880;-0.862;2023-07-13T05:34:19;100668.25;;;21.08;56.98
72359;BME280;60317;48.880;-0.862;2023-07-13T05:36:45;100666.41;;;21.08;56.91
72359;BME280;60317;48.880;-0.862;2023-07-13T05:39:13;100668.09;;;21.09;57.07
72359;BME280;60317;48.880;-0.862;2023-07-13T05:41:40;100658.25;;;21.10;56.96
72359;BME280;60317;48.880;-0.862;2023-07-13T05:44:06;100660.78;;;21.11;57.05
72359;BME280;60317;48.880;-0.862;2023-07-13T05:46:33;100664.31;;;21.12;57.03
72359;BME280;60317;48.880;-0.862;2023-07-13T05:49:00;100662.47;;;21.12;56.86
72359;BME280;60317;48.880;-0.862;2023-07-13T05:51:26;100677.75;;;21.12;57.00
72359;BME280;60317;48.880;-0.862;2023-07-13T05:53:53;100675.91;;;21.12;57.04
72359;BME280;60317;48.880;-0.862;2023-07-13T05:56:21;100673.22;;;21.12;56.95
72359;BME280;60317;48.880;-0.862;2023-07-13T05:58:47;100678.47;;;21.14;57.04
72359;BME280;60317;48.880;-0.862;2023-07-13T06:01:15;100678.47;;;21.14;57.10
72359;BME280;60317;48.880;-0.862;2023-07-13T06:03:42;100678.34;;;21.15;56.95
72359;BME280;60317;48.880;-0.862;2023-07-13T06:06:10;100681.88;;;21.16;56.96
72359;BME280;60317;48.880;-0.862;2023-07-13T06:08:37;100693.34;;;21.18;56.89
72359;BME280;60317;48.880;-0.862;2023-07-13T06:11:05;100696.88;;;21.18;56.93
72359;BME280;60317;48.880;-0.862;2023-07-13T06:13:33;100699.47;;;21.20;56.99
72359;BME280;60317;48.880;-0.862;2023-07-13T06:16:00;100699.31;;;21.21;57.08
72359;BME280;60317;48.880;-0.862;2023-07-13T06:18:27;100701.69;;;21.15;57.49
72359;BME280;60317;48.880;-0.862;2023-07-13T06:20:53;100708.03;;;21.14;57.67
72359;BME280;60317;48.880;-0.862;2023-07-13T06:23:20;100708.16;;;21.12;57.90
72359;BME280;60317;48.880;-0.862;2023-07-13T06:25:47;100710.72;;;21.14;57.87
72359;BME280;60317;48.880;-0.862;2023-07-13T06:28:13;100716.09;;;21.14;57.92
72359;BME280;60317;48.880;-0.862;2023-07-13T06:30:41;100721.22;;;21.17;57.70
72359;BME280;60317;48.880;-0.862;2023-07-13T06:33:07;100727.44;;;21.17;57.53
72359;BME280;60317;48.880;-0.862;2023-07-13T06:35:34;100728.81;;;21.12;57.76
72359;BME280;60317;48.880;-0.862;2023-07-13T06:38:01;100733.34;;;21.11;57.83
72359;BME280;60317;48.880;-0.862;2023-07-13T06:40:28;100730.66;;;21.11;57.90
72359;BME280;60317;48.880;-0.862;2023-07-13T06:42:54;100736.63;;;21.15;57.62
72359;BME280;60317;48.880;-0.862;2023-07-13T06:45:21;100744.81;;;21.13;57.78
72359;BME280;60317;48.880;-0.862;2023-07-13T06:47:49;100737.63;;;21.14;57.61
72359;BME280;60317;48.880;-0.862;2023-07-13T06:50:15;100734.78;;;21.15;57.88
72359;BME280;60317;48.880;-0.862;2023-07-13T06:52:42;100748.09;;;21.17;57.63
72359;BME280;60317;48.880;-0.862;2023-07-13T06:55:08;100745.28;;;21.18;57.53
72359;BME280;60317;48.880;-0.862;2023-07-13T06:57:35;100747.38;;;21.15;57.57
72359;BME280;60317;48.880;-0.862;2023-07-13T07:00:02;100750.91;;;21.15;57.61
72359;BME280;60317;48.880;-0.862;2023-07-13T07:02:28;100754.44;;;21.16;57.83
72359;BME280;60317;48.880;-0.862;2023-07-13T07:04:56;100753.47;;;21.17;57.47
72359;BME280;60317;48.880;-0.862;2023-07-13T07:07:24;100754.31;;;21.17;57.65
72359;BME280;60317;48.880;-0.862;2023-07-13T07:09:50;100756.44;;;21.14;57.87
72359;BME280;60317;48.880;-0.862;2023-07-13T07:12:17;100759.13;;;21.14;58.16
72359;BME280;60317;48.880;-0.862;2023-07-13T07:14:43;100768.03;;;21.14;58.21
72359;BME280;60317;48.880;-0.862;2023-07-13T07:17:09;100766.44;;;21.12;58.40
72359;BME280;60317;48.880;-0.862;2023-07-13T07:19:37;100777.19;;;21.12;58.24
72359;BME280;60317;48.880;-0.862;2023-07-13T07:22:05;100773.66;;;21.11;58.30
72359;BME280;60317;48.880;-0.862;2023-07-13T07:24:31;100781.13;;;21.08;58.33
72359;BME280;60317;48.880;-0.862;2023-07-13T07:26:58;100785.50;;;21.09;58.43
72359;BME280;60317;48.880;-0.862;2023-07-13T07:29:27;100785.25;;;21.12;58.12
72359;BME280;60317;48.880;-0.862;2023-07-13T07:31:58;100801.28;;;21.13;58.19
72359;BME280;60317;48.880;-0.862;2023-07-13T07:34:32;100793.47;;;21.10;58.33
72359;BME280;60317;48.880;-0.862;2023-07-13T07:36:59;100793.31;;;21.12;58.32
72359;BME280;60317;48.880;-0.862;2023-07-13T07:39:31;100796.00;;;21.12;58.30
72359;BME280;60317;48.880;-0.862;2023-07-13T07:41:58;100799.69;;;21.11;58.24
72359;BME280;60317;48.880;-0.862;2023-07-13T07:44:24;100799.94;;;21.08;58.49
72359;BME280;60317;48.880;-0.862;2023-07-13T07:46:51;100806.91;;;21.10;58.53
72359;BME280;60317;48.880;-0.862;2023-07-13T07:49:17;100804.47;;;21.07;58.75
72359;BME280;60317;48.880;-0.862;2023-07-13T07:51:44;100801.63;;;21.09;58.57
72359;BME280;60317;48.880;-0.862;2023-07-13T07:54:11;100811.13;;;21.13;58.57
72359;BME280;60317;48.880;-0.862;2023-07-13T07:56:50;100798.69;;;21.12;58.65
72359;BME280;60317;48.880;-0.862;2023-07-13T07:59:20;100796.84;;;21.12;58.57
72359;BME280;60317;48.880;-0.862;2023-07-13T08:01:49;100804.91;;;21.12;58.71
72359;BME280;60317;48.880;-0.862;2023-07-13T08:04:18;100799.44;;;21.14;58.38
72359;BME280;60317;48.880;-0.862;2023-07-13T08:06:48;100794.16;;;21.12;58.13
72359;BME280;60317;48.880;-0.862;2023-07-13T08:09:14;100797.00;;;21.11;57.86
72359;BME280;60317;48.880;-0.862;2023-07-13T08:11:41;100800.69;;;21.10;57.94
72359;BME280;60317;48.880;-0.862;2023-07-13T08:14:12;100799.53;;;21.12;57.63
72359;BME280;60317;48.880;-0.862;2023-07-13T08:16:38;100798.91;;;21.20;57.43
72359;BME280;60317;48.880;-0.862;2023-07-13T08:19:05;100813.78;;;21.24;57.81
72359;BME280;60317;48.880;-0.862;2023-07-13T08:21:32;100817.06;;;21.28;57.72
72359;BME280;60317;48.880;-0.862;2023-07-13T08:23:58;100814.06;;;21.21;57.92
72359;BME280;60317;48.880;-0.862;2023-07-13T08:26:25;100812.22;;;21.21;58.09
72359;BME280;60317;48.880;-0.862;2023-07-13T08:28:52;100807.94;;;21.19;57.98
72359;BME280;60317;48.880;-0.862;2023-07-13T08:31:20;100805.16;;;21.09;58.36
72359;BME280;60317;48.880;-0.862;2023-07-13T08:33:47;100804.31;;;21.09;58.21
72359;BME280;60317;48.880;-0.862;2023-07-13T08:36:13;100805.66;;;21.14;58.43
72359;BME280;60317;48.880;-0.862;2023-07-13T08:38:40;100806.09;;;21.19;57.91
72359;BME280;60317;48.880;-0.862;2023-07-13T08:41:13;100804.16;;;21.21;58.12
72359;BME280;60317;48.880;-0.862;2023-07-13T08:43:44;100799.97;;;21.29;57.81
72359;BME280;60317;48.880;-0.862;2023-07-13T08:46:15;100799.69;;;21.32;57.76
72359;BME280;60317;48.880;-0.862;2023-07-13T08:48:49;100799.81;;;21.30;57.90
72359;BME280;60317;48.880;-0.862;2023-07-13T08:51:26;100802.00;;;21.36;57.78
72359;BME280;60317;48.880;-0.862;2023-07-13T08:53:57;100805.69;;;21.35;57.97
72359;BME280;60317;48.880;-0.862;2023-07-13T08:56:27;100800.44;;;21.34;57.80
72359;BME280;60317;48.880;-0.862;2023-07-13T08:58:57;100802.00;;;21.36;57.66
72359;BME280;60317;48.880;-0.862;2023-07-13T09:01:30;100803.84;;;21.36;57.88
72359;BME280;60317;48.880;-0.862;2023-07-13T09:04:03;100803.72;;;21.37;57.72
72359;BME280;60317;48.880;-0.862;2023-07-13T09:06:37;100799.56;;;21.33;57.74
72359;BME280;60317;48.880;-0.862;2023-07-13T09:09:10;100799.06;;;21.39;57.69
72359;BME280;60317;48.880;-0.862;2023-07-13T09:11:47;100796.13;;;21.42;57.37
72359;BME280;60317;48.880;-0.862;2023-07-13T09:14:26;100800.50;;;21.43;57.54
72359;BME280;60317;48.880;-0.862;2023-07-13T09:16:55;100800.25;;;21.47;57.28
72359;BME280;60317;48.880;-0.862;2023-07-13T09:19:27;100800.56;;;21.53;57.17
72359;BME280;60317;48.880;-0.862;2023-07-13T09:21:55;100797.69;;;21.45;57.28
72359;BME280;60317;48.880;-0.862;2023-07-13T09:24:29;100799.50;;;21.44;57.20
72359;BME280;60317;48.880;-0.862;2023-07-13T09:26:58;100805.38;;;21.50;57.02
72359;BME280;60317;48.880;-0.862;2023-07-13T09:29:28;100788.72;;;21.56;56.75
72359;BME280;60317;48.880;-0.862;2023-07-13T09:31:57;100789.16;;;21.61;56.41
72359;BME280;60317;48.880;-0.862;2023-07-13T09:34:28;100795.25;;;21.63;56.30
72359;BME280;60317;48.880;-0.862;2023-07-13T09:36:56;100790.56;;;21.65;56.66
72359;BME280;60317;48.880;-0.862;2023-07-13T09:39:26;100803.06;;;21.66;56.14
72359;BME280;60317;48.880;-0.862;2023-07-13T09:41:57;100800.22;;;21.67;56.62
72359;BME280;60317;48.880;-0.862;2023-07-13T09:44:29;100810.13;;;21.67;55.95
72359;BME280;60317;48.880;-0.862;2023-07-13T09:46:57;100808.44;;;21.66;56.18
72359;BME280;60317;48.880;-0.862;2023-07-13T09:49:24;100805.59;;;21.67;55.75
72359;BME280;60317;48.880;-0.862;2023-07-13T09:51:58;100805.75;;;21.66;55.88
72359;BME280;60317;48.880;-0.862;2023-07-13T09:54:25;100801.22;;;21.66;55.91
72359;BME280;60317;48.880;-0.862;2023-07-13T09:56:54;100804.03;;;21.65;55.78
72359;BME280;60317;48.880;-0.862;2023-07-13T09:59:22;100803.84;;;21.57;55.85
72359;BME280;60317;48.880;-0.862;2023-07-13T10:01:49;100804.59;;;21.59;55.38
72359;BME280;60317;48.880;-0.862;2023-07-13T10:04:18;100801.34;;;21.65;54.94
72359;BME280;60317;48.880;-0.862;2023-07-13T10:06:45;100808.28;;;21.67;54.61
72359;BME280;60317;48.880;-0.862;2023-07-13T10:09:16;100807.19;;;21.70;54.41
72359;BME280;60317;48.880;-0.862;2023-07-13T10:11:43;100805.09;;;21.74;54.58
72359;BME280;60317;48.880;-0.862;2023-07-13T10:14:13;100799.44;;;21.77;54.69
72359;BME280;60317;48.880;-0.862;2023-07-13T10:16:42;100805.41;;;21.80;54.23
72359;BME280;60317;48.880;-0.862;2023-07-13T10:19:13;100810.63;;;21.82;54.19
72359;BME280;60317;48.880;-0.862;2023-07-13T10:21:49;100808.78;;;21.82;54.21
72359;BME280;60317;48.880;-0.862;2023-07-13T10:24:21;100816.00;;;21.82;53.73
72359;BME280;60317;48.880;-0.862;2023-07-13T10:26:52;100811.91;;;21.78;53.55
72359;BME280;60317;48.880;-0.862;2023-07-13T10:29:20;100812.63;;;21.80;53.23
72359;BME280;60317;48.880;-0.862;2023-07-13T10:31:48;100814.16;;;21.82;53.03
72359;BME280;60317;48.880;-0.862;2023-07-13T10:34:15;100808.53;;;21.85;53.22
72359;BME280;60317;48.880;-0.862;2023-07-13T10:36:44;100820.97;;;21.77;53.64
72359;BME280;60317;48.880;-0.862;2023-07-13T10:39:16;100820.91;;;21.67;53.66
72359;BME280;60317;48.880;-0.862;2023-07-13T10:41:46;100824.97;;;21.61;53.81
72359;BME280;60317;48.880;-0.862;2023-07-13T10:44:20;100823.66;;;21.56;53.61
72359;BME280;60317;48.880;-0.862;2023-07-13T10:46:47;100828.19;;;21.55;53.55
72359;BME280;60317;48.880;-0.862;2023-07-13T10:49:15;100835.38;;;21.55;53.53
72359;BME280;60317;48.880;-0.862;2023-07-13T10:51:43;100836.97;;;21.57;53.47
72359;BME280;60317;48.880;-0.862;2023-07-13T10:54:15;100839.72;;;21.67;53.07
72359;BME280;60317;48.880;-0.862;2023-07-13T10:56:50;100833.03;;;21.61;53.34
72359;BME280;60317;48.880;-0.862;2023-07-13T10:59:20;100838.06;;;21.55;53.82
72359;BME280;60317;48.880;-0.862;2023-07-13T11:01:54;100829.91;;;21.56;53.40
72359;BME280;60317;48.880;-0.862;2023-07-13T11:04:22;100835.13;;;21.58;52.81
72359;BME280;60317;48.880;-0.862;2023-07-13T11:06:52;100836.84;;;21.59;52.85
72359;BME280;60317;48.880;-0.862;2023-07-13T11:09:33;100836.44;;;21.63;52.80
72359;BME280;60317;48.880;-0.862;2023-07-13T11:12:03;100834.34;;;21.67;52.92
72359;BME280;60317;48.880;-0.862;2023-07-13T11:14:35;100831.47;;;21.59;52.84
72359;BME280;60317;48.880;-0.862;2023-07-13T11:22:16;100823.94;;;21.53;53.11
72359;BME280;60317;48.880;-0.862;2023-07-13T11:24:51;100828.78;;;21.59;53.04
72359;BME280;60317;48.880;-0.862;2023-07-13T11:27:34;100822.06;;;21.74;52.43
72359;BME280;60317;48.880;-0.862;2023-07-13T11:30:22;100833.00;;;21.82;52.54
72359;BME280;60317;48.880;-0.862;2023-07-13T11:32:51;100830.19;;;21.84;52.56
72359;BME280;60317;48.880;-0.862;2023-07-13T11:35:25;100827.38;;;21.85;52.67
72359;BME280;60317;48.880;-0.862;2023-07-13T11:37:53;100823.09;;;21.83;52.76
72359;BME280;60317;48.880;-0.862;2023-07-13T11:40:22;100822.25;;;21.82;52.84
72359;BME280;60317;48.880;-0.862;2023-07-13T11:42:52;100816.34;;;21.88;52.56
72359;BME280;60317;48.880;-0.862;2023-07-13T11:45:27;100816.19;;;21.90;52.85
72359;BME280;60317;48.880;-0.862;2023-07-13T11:48:22;100812.91;;;21.86;52.79
72359;BME280;60317;48.880;-0.862;2023-07-13T11:50:53;100808.00;;;21.91;52.70
72359;BME280;60317;48.880;-0.862;2023-07-13T11:53:21;100809.84;;;21.91;53.01
72359;BME280;60317;48.880;-0.862;2023-07-13T11:55:48;100809.38;;;21.86;53.06
72359;BME280;60317;48.880;-0.862;2023-07-13T11:58:23;100812.03;;;21.76;53.23
72359;BME280;60317;48.880;-0.862;2023-07-13T12:00:50;100814.00;;;21.74;53.25
72359;BME280;60317;48.880;-0.862;2023-07-13T12:03:20;100806.84;;;21.84;53.05
72359;BME280;60317;48.880;-0.862;2023-07-13T12:05:59;100807.53;;;21.86;53.12
72359;BME280;60317;48.880;-0.862;2023-07-13T12:08:26;100815.91;;;21.93;52.92
72359;BME280;60317;48.880;-0.862;2023-07-13T12:10:58;100801.50;;;21.94;52.86
72359;BME280;60317;48.880;-0.862;2023-07-13T12:13:27;100801.63;;;21.92;52.86
72359;BME280;60317;48.880;-0.862;2023-07-13T12:15:56;100808.00;;;21.91;52.84
72359;BME280;60317;48.880;-0.862;2023-07-13T12:18:29;100804.00;;;21.86;52.74
72359;BME280;60317;48.880;-0.862;2023-07-13T12:20:57;100809.94;;;21.80;52.78
72359;BME280;60317;48.880;-0.862;2023-07-13T12:23:27;100818.59;;;21.83;52.83
72359;BME280;60317;48.880;-0.862;2023-07-13T12:25:55;100828.09;;;21.87;52.54
72359;BME280;60317;48.880;-0.862;2023-07-13T12:28:28;100829.03;;;21.77;52.55
72359;BME280;60317;48.880;-0.862;2023-07-13T12:31:02;100832.94;;;21.73;52.82
72359;BME280;60317;48.880;-0.862;2023-07-13T12:33:31;100841.03;;;21.73;52.94
72359;BME280;60317;48.880;-0.862;2023-07-13T12:36:00;100829.66;;;21.69;53.37
72359;BME280;60317;48.880;-0.862;2023-07-13T12:38:27;100839.00;;;21.65;53.95
72359;BME280;60317;48.880;-0.862;2023-07-13T12:40:54;100840.00;;;21.64;54.33
72359;BME280;60317;48.880;-0.862;2023-07-13T12:43:22;100841.16;;;21.71;54.46
72359;BME280;60317;48.880;-0.862;2023-07-13T12:46:00;100841.94;;;21.83;54.15
72359;BME280;60317;48.880;-0.862;2023-07-13T12:48:28;100830.06;;;21.85;54.15
72359;BME280;60317;48.880;-0.862;2023-07-13T12:51:13;100830.91;;;21.86;54.63